首页
METAR-TAF:

METAR-TAF

机场 :

米登霍爾皇家空軍基地

Mildenhall, 英格兰

纬度: 52-22N, 经度: 000-29E, 海拔: 10米

当前天气观测

该预报发布于31分钟前的00:58 UTC
静风
温度 4°C
湿度 93%
气压 1006 hPa
能见度10公里或以上
天空无云

METAR: EGUN 170058Z 00000KT 9999 CLR 04/03 A2971 RMK AO2A SLPNO WND DATA ESTMD ALSTG ESTMD RVRNO .

时间: 02:29 (01:29 UTC)

预报

该预报发布于5小时和27分钟前的20:02 UTC
预报有效从16日的 20点(UTC)到 18日的 02点(UTC)
风速6节,风向多变
能见度10公里或以上
少量云层高于3500英尺
成为
从 17日的 03点(UTC)到 17日的 04点(UTC)
风速6节,风向南转西南
能見度: 8000
天空无云
轻雾
成为
从 17日的 07点(UTC)到 17日的 08点(UTC)
风速9节,风向
能见度10公里或以上
散云层高于8000英尺
成为
从 17日的 10点(UTC)到 17日的 11点(UTC)
风速12节,风向
能见度10公里或以上
散云层高于1500英尺
短暂存在
从 17日的 11点(UTC)到 17日的 15点(UTC)
能見度: 9000
多云层高于1500英尺
小阵雨
成为
从 17日的 14点(UTC)到 17日的 15点(UTC)
风速12节,风向
能见度10公里或以上
多云层高于2000英尺

TAF: EGUN 162002Z 1620/1802 VRB06KT 9999 FEW035 QNH2963INS BECMG 1703/1704 20006KT 8000 BR SKC QNH2969INS BECMG 1707/1708 18009KT 9999 NSW SCT080 QNH2969INS BECMG 1710/1711 18012KT 9999 SCT015 QNH2964INS TEMPO 1711/1715 9000 -SHRA BKN015 BECMG 1714/1715 18012KT 9999 BKN020 QNH2953INS TX15/1714Z TN07/1706Z

超过4000个机场的气象观测和天气预报(METAR&TAF报告)。

可查询的气象台以黄色和红色小点在地图上表示。

将鼠标移到小点上方,可查看气象台名称。

然后点击查看天气观测和预报。

如需切换地图:点击带黑十字的绿色按钮放大地图;点击带横线的绿色按钮缩小地图;或者点击绿色箭头查看邻近地区的地图。


METAR-TAF: